createdAt,value
2022-10-29T00:02:05.951Z,3.15
2022-10-29T00:04:51.540Z,4.00
2022-10-29T00:07:36.806Z,4.05
2022-10-29T00:10:22.601Z,3.67
2022-10-29T00:13:07.773Z,3.53
2022-10-29T00:15:53.192Z,3.53
2022-10-29T00:18:38.633Z,3.85
2022-10-29T00:21:25.894Z,3.38
2022-10-29T00:24:11.324Z,3.30
2022-10-29T00:26:56.420Z,3.30
2022-10-29T00:29:41.817Z,3.42
2022-10-29T00:32:27.276Z,3.78
2022-10-29T00:35:12.675Z,3.30
2022-10-29T00:37:58.150Z,3.33
2022-10-29T00:40:43.910Z,3.50
2022-10-29T00:43:29.266Z,3.25
2022-10-29T00:46:35.652Z,4.55
2022-10-29T00:49:21.068Z,3.53
2022-10-29T00:52:07.970Z,3.60
2022-10-29T00:54:54.606Z,3.58
2022-10-29T00:57:44.488Z,3.97
2022-10-29T01:00:29.840Z,3.40
2022-10-29T01:03:15.332Z,3.88
2022-10-29T01:06:02.078Z,6.22
2022-10-29T01:08:47.331Z,5.38
2022-10-29T01:11:48.746Z,4.03
2022-10-29T01:15:00.448Z,5.40
2022-10-29T01:17:51.613Z,4.55
2022-10-29T01:21:10.725Z,4.05
2022-10-29T01:24:28.909Z,4.60
2022-10-29T01:27:51.245Z,4.82
2022-10-29T01:31:04.152Z,4.40
2022-10-29T01:36:55.905Z,4.43
2022-10-29T01:39:44.297Z,4.68
2022-10-29T01:42:38.896Z,3.90
2022-10-29T01:45:29.734Z,5.25
2022-10-29T01:48:26.637Z,9.80
2022-10-29T01:51:24.719Z,6.75
2022-10-29T01:54:11.604Z,8.00
2022-10-29T01:56:58.211Z,5.72
2022-10-29T01:59:55.291Z,6.13
2022-10-29T02:03:24.313Z,3.67
2022-10-29T02:06:33.739Z,3.38
2022-10-29T02:09:30.653Z,4.10
2022-10-29T02:12:20.326Z,4.20
2022-10-29T02:15:12.152Z,4.13
2022-10-29T02:18:02.458Z,3.90
2022-10-29T02:20:47.790Z,4.28
2022-10-29T02:23:33.373Z,3.83
2022-10-29T02:26:19.024Z,3.17
2022-10-29T02:29:04.202Z,3.28
2022-10-29T02:31:49.448Z,3.90
2022-10-29T02:34:34.834Z,3.33
2022-10-29T02:37:20.173Z,4.15
2022-10-29T02:40:06.037Z,3.35
2022-10-29T02:42:51.549Z,3.40
2022-10-29T02:45:36.821Z,2.95
2022-10-29T02:48:22.328Z,3.10
2022-10-29T02:51:07.640Z,3.78
2022-10-29T02:53:53.036Z,3.35
2022-10-29T02:56:38.557Z,3.67
2022-10-29T02:59:23.997Z,3.28
2022-10-29T03:02:09.584Z,4.55
2022-10-29T03:04:54.721Z,4.20
2022-10-29T03:07:40.056Z,3.60
2022-10-29T03:10:25.541Z,4.13
2022-10-29T03:13:11.614Z,3.15
2022-10-29T03:15:57.108Z,3.13
2022-10-29T03:18:42.473Z,3.88
2022-10-29T03:21:28.100Z,3.10
2022-10-29T03:24:13.482Z,3.65
2022-10-29T03:26:58.961Z,3.03
2022-10-29T03:29:44.592Z,4.50
2022-10-29T03:32:29.828Z,4.10
2022-10-29T03:35:16.497Z,5.75
2022-10-29T03:38:01.604Z,5.95
2022-10-29T03:40:46.964Z,5.93
2022-10-29T03:43:32.615Z,5.85
2022-10-29T03:46:17.931Z,3.95
2022-10-29T03:49:03.356Z,4.32
2022-10-29T03:51:48.548Z,4.18
2022-10-29T03:54:34.008Z,4.10
2022-10-29T03:57:19.853Z,3.35
2022-10-29T04:00:05.654Z,3.70
2022-10-29T04:02:51.081Z,3.67
2022-10-29T04:05:36.709Z,3.50
2022-10-29T04:08:22.111Z,4.00
2022-10-29T04:11:08.874Z,4.00
2022-10-29T04:13:54.117Z,2.63
2022-10-29T04:16:39.556Z,3.45
2022-10-29T04:19:25.021Z,3.67
2022-10-29T04:31:26.645Z,4.13
2022-10-29T04:34:11.849Z,3.58
2022-10-29T04:36:57.327Z,3.45
2022-10-29T04:39:42.627Z,3.25
2022-10-29T04:42:27.945Z,3.67
2022-10-29T04:45:13.334Z,2.72
2022-10-29T04:48:00.935Z,2.80
2022-10-29T04:50:46.412Z,3.92
2022-10-29T04:53:31.612Z,4.05
2022-10-29T04:56:17.509Z,3.17
2022-10-29T04:59:03.055Z,3.40
2022-10-29T05:01:48.212Z,3.33
2022-10-29T05:04:33.600Z,3.63
2022-10-29T05:07:18.964Z,3.40
2022-10-29T05:10:04.878Z,3.25
2022-10-29T05:12:59.870Z,4.00
2022-10-29T05:15:53.225Z,4.13
2022-10-29T05:18:39.648Z,4.28
2022-10-29T05:21:25.046Z,5.90
2022-10-29T05:24:10.561Z,3.78
2022-10-29T05:26:55.931Z,3.55
2022-10-29T05:29:41.307Z,3.50
2022-10-29T05:32:29.056Z,3.70
2022-10-29T05:35:14.296Z,3.72
2022-10-29T05:38:00.399Z,3.70
2022-10-29T05:40:46.200Z,3.58
2022-10-29T05:43:31.658Z,3.47
2022-10-29T05:46:17.037Z,4.20
2022-10-29T05:49:03.323Z,4.03
2022-10-29T05:51:48.821Z,3.55
2022-10-29T05:54:34.264Z,3.75
2022-10-29T05:57:20.723Z,4.55
2022-10-29T06:00:06.474Z,4.00
2022-10-29T06:02:51.901Z,4.20
2022-10-29T06:05:37.020Z,3.72
2022-10-29T06:08:22.460Z,4.03
2022-10-29T06:11:07.718Z,3.70
2022-10-29T06:13:56.597Z,4.50
2022-10-29T06:16:42.175Z,4.88
2022-10-29T06:19:27.374Z,4.60
2022-10-29T06:22:12.797Z,4.82
2022-10-29T06:24:58.169Z,3.58
2022-10-29T06:27:43.505Z,3.70
2022-10-29T06:30:30.571Z,3.15
2022-10-29T06:33:20.059Z,4.25
2022-10-29T06:36:05.927Z,5.10
2022-10-29T06:38:51.117Z,3.67
2022-10-29T06:41:36.380Z,6.30
2022-10-29T06:44:21.820Z,3.97
2022-10-29T06:47:07.108Z,3.88
2022-10-29T06:49:52.550Z,3.78
2022-10-29T06:52:38.284Z,4.18
2022-10-29T06:55:23.399Z,4.13
2022-10-29T06:58:17.777Z,3.92
2022-10-29T07:01:03.270Z,4.10
2022-10-29T07:03:49.088Z,4.13
2022-10-29T07:06:36.756Z,3.92
2022-10-29T07:09:21.929Z,4.65
2022-10-29T07:12:07.718Z,5.47
2022-10-29T07:14:53.032Z,4.40
2022-10-29T07:17:39.089Z,4.72
2022-10-29T07:20:24.548Z,4.70
2022-10-29T07:23:11.156Z,4.55
2022-10-29T07:25:56.677Z,5.00
2022-10-29T07:28:41.950Z,4.70
2022-10-29T07:31:28.702Z,7.22
2022-10-29T07:34:13.986Z,5.07
2022-10-29T07:36:59.251Z,4.82
2022-10-29T07:39:44.792Z,4.65
2022-10-29T07:42:30.187Z,5.05
2022-10-29T07:45:15.787Z,5.10
2022-10-29T07:48:03.624Z,7.85
2022-10-29T07:50:49.387Z,5.50
2022-10-29T07:53:34.724Z,5.75
2022-10-29T07:56:20.075Z,5.75
2022-10-29T07:59:05.447Z,5.63
2022-10-29T08:01:51.139Z,5.47
2022-10-29T08:04:36.332Z,5.70
2022-10-29T08:07:21.624Z,5.68
2022-10-29T08:10:07.133Z,5.10
2022-10-29T08:12:53.719Z,5.88
2022-10-29T08:15:39.397Z,6.75
2022-10-29T08:18:24.670Z,6.30
2022-10-29T08:21:10.718Z,5.63
2022-10-29T08:23:56.331Z,7.05
2022-10-29T08:26:41.695Z,7.25
2022-10-29T08:29:27.165Z,6.57
2022-10-29T08:32:12.503Z,6.32
2022-10-29T08:34:58.101Z,5.75
2022-10-29T08:37:44.725Z,5.88
2022-10-29T08:41:04.904Z,5.30
2022-10-29T08:44:05.133Z,6.22
2022-10-29T08:46:54.081Z,5.22
2022-10-29T08:49:45.334Z,5.20
2022-10-29T08:52:35.181Z,6.03
2022-10-29T08:55:24.807Z,5.05
2022-10-29T08:58:21.679Z,5.18
2022-10-29T09:01:13.490Z,5.70
2022-10-29T09:03:58.981Z,5.97
2022-10-29T09:06:51.426Z,5.47
2022-10-29T09:09:45.538Z,5.15
2022-10-29T09:12:55.361Z,6.18
2022-10-29T09:16:06.410Z,6.75
2022-10-29T09:19:16.849Z,5.63
2022-10-29T09:22:24.129Z,6.32
2022-10-29T09:25:27.886Z,5.57
2022-10-29T09:28:22.415Z,5.82
2022-10-29T09:31:16.746Z,5.15
2022-10-29T09:34:09.716Z,5.85
2022-10-29T09:36:56.179Z,5.22
2022-10-29T09:39:44.312Z,6.32
2022-10-29T09:42:39.263Z,5.57
2022-10-29T09:45:35.019Z,5.82
2022-10-29T09:48:35.247Z,4.68
2022-10-29T09:51:41.718Z,4.97
2022-10-29T09:54:30.228Z,5.45
2022-10-29T09:57:36.175Z,5.50
2022-10-29T10:00:28.051Z,6.10
2022-10-29T10:03:20.496Z,6.03
2022-10-29T10:06:08.645Z,5.47
2022-10-29T10:09:05.771Z,6.32
2022-10-29T10:11:54.224Z,5.20
2022-10-29T10:14:39.573Z,4.80
2022-10-29T10:17:24.990Z,6.20
2022-10-29T10:20:45.615Z,5.53
2022-10-29T10:23:45.699Z,5.75
2022-10-29T10:26:39.335Z,5.03
2022-10-29T10:29:26.654Z,7.00
2022-10-29T10:32:16.439Z,6.38
2022-10-29T10:35:01.830Z,5.43
2022-10-29T10:37:47.112Z,4.85
2022-10-29T10:40:32.535Z,5.57
2022-10-29T10:43:24.100Z,5.97
2022-10-29T10:46:25.113Z,6.10
2022-10-29T10:49:17.747Z,5.50
2022-10-29T10:52:06.769Z,6.57
2022-10-29T10:55:00.538Z,5.93
2022-10-29T10:58:11.006Z,5.70
2022-10-29T11:01:05.302Z,5.60
2022-10-29T11:04:22.864Z,5.38
2022-10-29T11:07:13.536Z,5.32
2022-10-29T11:10:02.578Z,4.70
2022-10-29T11:12:53.556Z,5.10
2022-10-29T11:15:50.533Z,5.43
2022-10-29T11:18:56.293Z,4.75
2022-10-29T11:21:52.581Z,5.20
2022-10-29T11:25:08.081Z,5.18
2022-10-29T11:28:09.652Z,5.60
2022-10-29T11:31:02.692Z,5.43
2022-10-29T11:34:22.713Z,5.32
2022-10-29T11:37:31.161Z,5.00
2022-10-29T11:40:23.926Z,4.95
2022-10-29T11:43:12.038Z,5.07
2022-10-29T11:46:21.428Z,5.13
2022-10-29T11:49:13.408Z,5.05
2022-10-29T11:52:22.336Z,4.95
2022-10-29T11:55:07.406Z,5.07
2022-10-29T11:58:23.357Z,5.43
2022-10-29T12:01:42.330Z,5.50
2022-10-29T12:04:41.155Z,6.18
2022-10-29T12:07:50.886Z,5.30
2022-10-29T12:11:09.919Z,5.35
2022-10-29T12:14:17.300Z,4.78
2022-10-29T12:17:10.166Z,5.80
2022-10-29T12:19:58.211Z,4.75
2022-10-29T12:22:56.668Z,4.95
2022-10-29T12:26:03.360Z,5.57
2022-10-29T12:29:20.911Z,4.82
2022-10-29T12:32:13.633Z,5.50
2022-10-29T12:35:15.093Z,5.15
2022-10-29T12:38:10.174Z,5.15
2022-10-29T12:41:15.128Z,5.30
2022-10-29T12:44:13.692Z,5.55
2022-10-29T12:47:24.651Z,4.82
2022-10-29T12:50:24.736Z,5.22
2022-10-29T12:53:29.641Z,5.85
2022-10-29T12:56:16.528Z,5.85
2022-10-29T12:59:23.991Z,5.10
2022-10-29T13:02:38.416Z,4.70
2022-10-29T13:05:37.800Z,4.70
2022-10-29T13:08:34.037Z,4.90
2022-10-29T13:11:23.436Z,5.15
2022-10-29T13:14:09.134Z,5.38
2022-10-29T13:16:55.653Z,7.28
2022-10-29T13:19:54.450Z,5.38
2022-10-29T13:22:52.027Z,5.75
2022-10-29T13:25:37.345Z,5.75
2022-10-29T13:28:22.609Z,5.15
2022-10-29T13:31:07.887Z,5.20
2022-10-29T13:33:54.303Z,5.05
2022-10-29T13:36:39.424Z,5.07
2022-10-29T13:39:24.851Z,5.97
2022-10-29T13:42:13.072Z,4.93
2022-10-29T13:44:58.695Z,5.43
2022-10-29T13:47:45.714Z,6.43
2022-10-29T13:50:33.217Z,5.93
2022-10-29T13:53:25.377Z,5.32
2022-10-29T13:56:17.023Z,5.65
2022-10-29T13:59:08.307Z,4.65
2022-10-29T14:02:09.866Z,4.88
2022-10-29T14:05:09.054Z,6.00
2022-10-29T14:08:03.802Z,4.22
2022-10-29T14:10:53.510Z,4.53
2022-10-29T14:13:49.391Z,5.20
2022-10-29T14:16:34.617Z,4.35
2022-10-29T14:19:21.640Z,4.85
2022-10-29T14:22:16.614Z,4.65
2022-10-29T14:25:04.348Z,4.95
2022-10-29T14:28:14.478Z,4.68
2022-10-29T14:30:59.415Z,7.07
2022-10-29T14:33:51.661Z,5.25
2022-10-29T14:36:38.554Z,4.90
2022-10-29T14:39:32.462Z,4.82
2022-10-29T14:42:34.167Z,4.85
2022-10-29T14:45:30.669Z,5.93
2022-10-29T14:48:18.575Z,5.03
2022-10-29T14:51:03.932Z,5.18
2022-10-29T14:54:00.814Z,5.30
2022-10-29T14:56:50.435Z,4.90
2022-10-29T14:59:36.074Z,4.45
2022-10-29T15:02:37.756Z,4.55
2022-10-29T15:05:24.441Z,4.13
2022-10-29T15:08:09.854Z,4.45
2022-10-29T15:10:58.074Z,4.82
2022-10-29T15:13:46.180Z,4.45
2022-10-29T15:16:35.712Z,7.88
2022-10-29T15:19:23.522Z,4.63
2022-10-29T15:22:11.052Z,4.35
2022-10-29T15:24:57.023Z,4.30
2022-10-29T15:27:42.932Z,4.40
2022-10-29T15:30:36.773Z,4.45
2022-10-29T15:33:27.527Z,4.65
2022-10-29T15:36:12.845Z,4.70
2022-10-29T15:39:17.866Z,4.97
2022-10-29T15:42:03.256Z,4.90
2022-10-29T15:45:19.567Z,5.60
2022-10-29T15:48:12.109Z,4.72
2022-10-29T15:50:57.661Z,5.13
2022-10-29T15:53:43.354Z,4.72
2022-10-29T15:56:29.559Z,5.18
2022-10-29T15:59:17.832Z,5.22
2022-10-29T16:02:13.301Z,7.50
2022-10-29T16:04:58.564Z,5.93
2022-10-29T16:07:45.328Z,6.95
2022-10-29T16:10:30.683Z,6.47
2022-10-29T16:13:17.770Z,5.97
2022-10-29T16:16:03.718Z,5.82
2022-10-29T16:18:49.565Z,6.15
2022-10-29T16:21:35.264Z,6.78
2022-10-29T16:24:20.529Z,5.97
2022-10-29T16:27:16.261Z,6.43
2022-10-29T16:30:01.689Z,5.45
2022-10-29T16:32:49.899Z,6.25
2022-10-29T16:35:35.020Z,6.45
2022-10-29T16:38:20.424Z,6.95
2022-10-29T16:41:05.989Z,6.75
2022-10-29T16:43:52.463Z,7.32
2022-10-29T16:46:37.719Z,7.05
2022-10-29T16:49:23.176Z,6.55
2022-10-29T16:52:09.416Z,7.35
2022-10-29T16:54:54.814Z,6.10
2022-10-29T16:57:40.423Z,7.03
2022-10-29T17:00:26.196Z,6.75
2022-10-29T17:03:15.675Z,6.53
2022-10-29T17:06:09.728Z,7.10
2022-10-29T17:08:54.710Z,7.45
2022-10-29T17:11:40.127Z,6.78
2022-10-29T17:14:25.249Z,7.57
2022-10-29T17:17:10.650Z,5.65
2022-10-29T17:19:56.162Z,6.28
2022-10-29T17:22:41.499Z,6.45
2022-10-29T17:25:26.934Z,6.05
2022-10-29T17:28:12.322Z,5.45
2022-10-29T17:30:57.575Z,6.18
2022-10-29T17:33:42.974Z,6.00
2022-10-29T17:36:28.306Z,6.43
2022-10-29T17:39:13.846Z,6.20
2022-10-29T17:41:59.627Z,5.93
2022-10-29T17:44:44.625Z,5.95
2022-10-29T17:47:30.176Z,6.43
2022-10-29T17:50:15.830Z,6.22
2022-10-29T17:53:01.499Z,5.25
2022-10-29T17:55:46.817Z,6.00
2022-10-29T17:58:32.470Z,5.65
2022-10-29T18:01:18.137Z,5.95
2022-10-29T18:04:04.526Z,6.55
2022-10-29T18:06:50.021Z,5.82
2022-10-29T18:09:35.325Z,6.45
2022-10-29T18:12:20.737Z,5.93
2022-10-29T18:15:06.744Z,7.47
2022-10-29T18:20:38.213Z,7.22
2022-10-29T18:23:23.621Z,6.30
2022-10-29T18:26:27.133Z,6.20
2022-10-29T18:29:12.416Z,6.65
2022-10-29T18:31:57.956Z,6.13
2022-10-29T18:34:43.071Z,6.57
2022-10-29T18:37:28.479Z,6.15
2022-10-29T18:40:13.950Z,5.82
2022-10-29T18:42:59.453Z,5.90
2022-10-29T18:45:44.689Z,6.07
2022-10-29T18:51:27.041Z,6.35
2022-10-29T18:54:13.508Z,6.47
2022-10-29T18:56:58.973Z,6.72
2022-10-29T18:59:44.815Z,6.63
2022-10-29T19:02:30.234Z,5.93
2022-10-29T19:05:15.504Z,6.93
2022-10-29T19:08:01.140Z,6.03
2022-10-29T19:10:46.212Z,7.45
2022-10-29T19:13:32.483Z,6.68
2022-10-29T19:16:18.295Z,6.72
2022-10-29T19:19:10.322Z,7.22
2022-10-29T19:21:55.477Z,6.95
2022-10-29T19:24:41.088Z,6.75
2022-10-29T19:27:26.441Z,6.78
2022-10-29T19:30:12.141Z,6.68
2022-10-29T19:32:58.500Z,6.40
2022-10-29T19:35:45.218Z,7.50
2022-10-29T19:38:30.680Z,6.45
2022-10-29T19:41:17.070Z,6.78
2022-10-29T19:44:03.277Z,6.25
2022-10-29T19:46:48.729Z,9.00
2022-10-29T19:49:34.039Z,6.40
2022-10-29T19:52:19.526Z,7.43
2022-10-29T19:55:05.715Z,7.03
2022-10-29T19:57:50.980Z,7.38
2022-10-29T20:00:37.473Z,7.28
2022-10-29T20:03:22.896Z,7.85
2022-10-29T20:06:09.247Z,7.00
2022-10-29T20:08:54.656Z,7.07
2022-10-29T20:11:40.896Z,7.03
2022-10-29T20:14:29.028Z,6.30
2022-10-29T20:17:14.910Z,7.07
2022-10-29T20:20:00.273Z,7.10
2022-10-29T20:22:46.631Z,6.03
2022-10-29T20:25:31.654Z,6.28
2022-10-29T20:28:17.079Z,6.47
2022-10-29T20:31:17.724Z,6.43
2022-10-29T20:34:03.184Z,6.00
2022-10-29T20:36:48.855Z,7.25
2022-10-29T20:39:34.338Z,6.07
2022-10-29T20:42:19.743Z,6.18
2022-10-29T20:45:06.045Z,5.60
2022-10-29T20:47:51.170Z,5.80
2022-10-29T20:50:37.048Z,4.53
2022-10-29T20:53:22.358Z,6.55
2022-10-29T20:56:10.350Z,7.75
2022-10-29T20:58:58.841Z,6.10
2022-10-29T21:01:44.543Z,6.60
2022-10-29T21:04:29.680Z,6.22
2022-10-29T21:07:15.085Z,7.03
2022-10-29T21:10:00.529Z,7.00
2022-10-29T21:12:45.933Z,5.65
2022-10-29T21:15:35.098Z,5.25
2022-10-29T21:18:20.389Z,6.38
2022-10-29T21:21:06.529Z,5.65
2022-10-29T21:23:51.627Z,7.40
2022-10-29T21:26:37.068Z,5.88
2022-10-29T21:29:22.637Z,7.25
2022-10-29T21:32:11.442Z,5.45
2022-10-29T21:34:59.763Z,6.47
2022-10-29T21:37:45.214Z,6.97
2022-10-29T21:40:30.337Z,6.63
2022-10-29T21:43:16.965Z,5.60
2022-10-29T21:46:02.477Z,5.45
2022-10-29T21:48:47.500Z,5.82
2022-10-29T21:51:33.034Z,5.70
2022-10-29T21:54:19.377Z,5.22
2022-10-29T21:57:06.276Z,5.55
2022-10-29T21:59:51.881Z,4.50
2022-10-29T22:02:37.209Z,4.97
2022-10-29T22:05:22.498Z,6.20
2022-10-29T22:08:07.897Z,5.63
2022-10-29T22:10:57.386Z,5.65
2022-10-29T22:13:42.647Z,5.65
2022-10-29T22:16:28.497Z,5.63
2022-10-29T22:19:13.699Z,5.03
2022-10-29T22:21:58.992Z,5.15
2022-10-29T22:24:44.244Z,4.82
2022-10-29T22:27:29.684Z,5.10
2022-10-29T22:30:15.098Z,5.57
2022-10-29T22:33:01.550Z,5.13
2022-10-29T22:35:46.729Z,5.40
2022-10-29T22:38:32.128Z,5.05
2022-10-29T22:41:18.196Z,5.55
2022-10-29T22:44:03.965Z,5.53
2022-10-29T22:46:49.150Z,6.18
2022-10-29T22:49:34.710Z,6.82
2022-10-29T22:52:20.088Z,6.13
2022-10-29T22:55:06.101Z,5.97
2022-10-29T22:57:51.499Z,7.32
2022-10-29T23:00:36.833Z,6.70
2022-10-29T23:03:22.286Z,5.78
2022-10-29T23:06:09.789Z,7.43
2022-10-29T23:09:04.007Z,5.55
2022-10-29T23:11:49.143Z,6.47
2022-10-29T23:14:34.546Z,6.28
2022-10-29T23:17:19.876Z,6.53
2022-10-29T23:20:05.488Z,6.20
2022-10-29T23:22:52.189Z,6.75
2022-10-29T23:25:40.541Z,7.90
2022-10-29T23:28:25.857Z,6.47
2022-10-29T23:31:17.378Z,6.47
2022-10-29T23:34:02.704Z,6.20
2022-10-29T23:36:48.160Z,5.30
2022-10-29T23:39:33.561Z,6.05
2022-10-29T23:42:18.924Z,5.13
2022-10-29T23:45:06.833Z,5.72
2022-10-29T23:47:53.189Z,6.90
2022-10-29T23:50:39.337Z,5.85
2022-10-29T23:53:24.779Z,6.35
2022-10-29T23:56:10.321Z,5.57
2022-10-29T23:58:55.572Z,5.72
